Latest Coastal Weather Observations for Port Lincoln Airport

IDS60701

Issued at 10:21 am CDT Wednesday 1 April 2015 (issued every 10 minutes, with the page automatically refreshed every 10 minutes)

About coastal observations | Map of coastal stations | Coastal observations for SA | Marine services | Other Formats
Station Details ID: 018192 Name: PORT LINCOLN AWS Lat: -34.60 Lon: 135.88 Height: 8.5 m
Data from the previous 72 hours. | See also: Recent months at Port Lincoln Airport
Date/Time
CDT
Temp

°C
Wind Pressure Rain
since 9am
mm
Weather Cloud Vis
km
Sea
Height
m
Swell
Dir
 
Speed
knots
Gust
knots
hPa Trend Height
m
Period
s
Dir
01/10:00am 27.0 NW 14 19 1013.9 - 0.0 - - 10 - - - -
01/09:30am 25.5 NW 14 19 1013.9 - 0.0 - Partly cloudy 10 - - - -
01/09:00am 25.0 NW 17 22 1013.5 - 0.0 - Cloudy 10 - - - -
01/08:30am 25.8 NNW 20 27 1013.2 - 0.0 - - 10 - - - -
01/08:07am 26.5 NNW 19 29 1012.8 - 0.0 - - 10 - - - -
01/08:00am 26.3 NNW 17 25 1012.9 - 0.0 - - 10 - - - -
01/07:30am 26.6 NNW 19 24 1012.7 - 0.0 - Partly cloudy 10 - - - -
01/07:00am 26.4 NNW 15 20 1012.8 - 0.0 - Partly cloudy 10 - - - -
01/06:30am 26.3 NNW 16 22 1012.9 - 0.0 - Partly cloudy 10 - - - -
01/06:00am 26.5 NNW 16 21 1012.9 - 0.0 - Mostly cloudy 10 - - - -
01/05:30am 26.8 NNW 15 19 1013.0 - 0.0 - - 10 - - - -
01/05:00am 26.6 NNW 10 12 1013.3 - 0.0 - - 10 - - - -
01/04:30am 25.6 NNW 9 11 1013.5 - 0.0 - - 10 - - - -
01/04:00am 26.3 NNW 11 15 1013.7 - 0.0 - - 10 - - - -
01/03:30am 25.8 N 10 13 1014.2 - 0.0 - - 10 - - - -
01/03:27am 25.6 N 9 13 1014.2 - 0.0 - - 10 - - - -
01/03:00am 20.6 SW 2 4 1014.7 - 0.0 - Cloudy 10 - - - -
01/02:30am 19.4 ENE 4 6 1015.0 - 0.0 - - 10 - - - -
01/02:00am 18.7 CALM 0 0 1015.4 - 0.0 - - 10 - - - -
01/01:30am 17.7 CALM 0 0 1016.0 - 0.0 - - 10 - - - -
01/01:00am 17.7 CALM 0 0 1016.6 - 0.0 - - 10 - - - -
01/12:30am 17.9 SW 3 4 1016.9 - 0.0 - - 10 - - - -
01/12:00am 17.8 CALM 0 3 1017.2 - 0.0 - Mostly clear 10 - - - -
 
Date/Time
CDT
Temp

°C
Wind Pressure Rain
since 9am
mm
Weather Cloud Vis
km
Sea
Height
m
Swell
Dir
 
Speed
knots
Gust
knots
hPa Trend Height
m
Period
s
Dir
31/11:30pm 17.8 SSW 4 5 1017.4 - 0.0 - - 10 - - - -
31/11:00pm 19.8 SSW 4 5 1017.6 - 0.0 - - 10 - - - -
31/10:30pm 19.1 SSW 4 7 1017.8 - 0.0 - - 10 - - - -
31/10:00pm 19.1 W 3 5 1018.0 - 0.0 - - 10 - - - -
31/09:30pm 20.2 SSW 5 6 1017.9 - 0.0 - - 10 - - - -
31/09:00pm 19.6 SW 4 5 1018.0 - 0.0 - Cloudy 10 - - - -
31/08:30pm 20.4 SSW 5 5 1018.2 - 0.0 - - 10 - - - -
31/08:00pm 20.2 SSE 7 9 1018.1 - 0.0 - - 10 - - - -
31/07:30pm 20.5 SE 5 7 1017.8 - 0.0 - - 10 - - - -
31/07:00pm 21.9 SE 7 8 1017.9 - 0.0 - - 10 - - - -
31/06:30pm 22.7 SSE 8 10 1017.8 - 0.0 - - 10 - - - -
31/06:00pm 23.8 SE 6 8 1017.9 - 0.0 - - 10 - - - -
31/05:30pm 25.5 ESE 7 10 1017.9 - 0.0 - - 10 - - - -
31/05:00pm 24.7 E 8 11 1017.9 - 0.0 - - 10 - - - -
31/04:30pm 25.2 E 9 13 1018.1 - 0.0 - - 10 - - - -
31/04:00pm 24.4 E 7 9 1018.5 - 0.0 - - 10 - - - -
31/03:30pm 25.2 E 9 12 1018.7 - 0.0 - - 10 - - - -
31/03:00pm 24.1 ENE 9 11 1019.1 - 0.0 - Mostly clear 10 - - - -
31/02:30pm 25.3 ENE 8 11 1019.4 - 0.0 - - 10 - - - -
31/02:00pm 24.5 E 8 10 1019.8 - 0.0 - - 10 - - - -
31/01:30pm 24.9 E 6 9 1020.3 - 0.0 - - 10 - - - -
31/01:00pm 23.9 ENE 7 10 1020.7 - 0.0 - - 10 - - - -
31/12:30pm 23.0 E 8 9 1021.1 - 0.0 - - 10 - - - -
31/12:00pm 23.4 E 8 11 1021.5 - 0.0 - - 10 - - - -
31/11:30am 23.5 E 7 10 1021.9 - 0.0 - - 10 - - - -
31/11:00am 23.8 ENE 9 12 1022.2 - 0.0 - - 10 - - - -
31/10:30am 22.8 ENE 8 9 1022.5 - 0.0 - - 10 - - - -
31/10:00am 22.2 NE 7 9 1022.6 - 0.0 - - 10 - - - -
31/09:30am 19.9 NE 5 9 1022.7 - 0.0 - - 10 - - - -
31/09:00am 16.4 NNE 2 5 1022.7 - 0.2 - - 10 - - - -
31/08:30am 15.3 NNW 4 5 1022.4 - 0.2 - - 10 - - - -
31/08:00am 12.7 NW 4 5 1022.3 - 0.2 - - 10 - - - -
31/07:30am 11.6 NW 4 5 1022.1 - 0.2 - - 10 - - - -
31/07:00am 11.5 NW 3 4 1021.9 - 0.2 - - 10 - - - -
31/06:30am 11.4 NW 4 5 1022.0 - 0.2 - - 10 - - - -
31/06:00am 10.8 WNW 5 6 1021.9 - 0.2 Rain - 10 - - - -
31/05:30am 11.7 NW 6 7 1021.9 - 0.0 - - 10 - - - -
31/05:00am 11.7 NW 5 7 1022.0 - 0.0 - - 10 - - - -
31/04:30am 11.3 NW 5 6 1022.5 - 0.0 - - 10 - - - -
31/04:00am 12.1 WNW 6 7 1022.9 - 0.0 - - 10 - - - -
31/03:30am 12.0 NW 6 7 1022.8 - 0.0 - - 10 - - - -
31/03:00am 12.1 NW 5 7 1023.2 - 0.0 - - 10 - - - -
31/02:30am 12.5 WNW 6 7 1023.6 - 0.0 - - 10 - - - -
31/02:00am 12.3 WNW 5 7 1023.6 - 0.0 - - 10 - - - -
31/01:30am 12.6 WNW 5 6 1023.6 - 0.0 - - 10 - - - -
31/01:00am 12.9 WNW 4 6 1023.8 - 0.0 - - 10 - - - -
31/12:30am 13.1 WNW 6 7 1023.9 - 0.0 - - 10 - - - -
31/12:00am 12.9 WNW 2 5 1024.1 - 0.0 - - 10 - - - -
 
Date/Time
CDT
Temp

°C
Wind Pressure Rain
since 9am
mm
Weather Cloud Vis
km
Sea
Height
m
Swell
Dir
 
Speed
knots
Gust
knots
hPa Trend Height
m
Period
s
Dir
30/11:30pm 12.9 CALM 0 0 1024.2 - 0.0 - - 10 - - - -
30/11:00pm 12.9 WNW 3 4 1024.5 - 0.0 - - 10 - - - -
30/10:30pm 13.8 WNW 4 5 1024.4 - 0.0 - - 10 - - - -
30/10:00pm 13.6 CALM 0 0 1024.3 - 0.0 - - 10 - - - -
30/09:30pm 15.4 NW 1 3 1024.3 - 0.0 - - 10 - - - -
30/09:00pm 15.7 ESE 1 4 1024.2 - 0.0 - - 10 - - - -
30/08:30pm 16.5 ESE 4 5 1024.1 - 0.0 - - 10 - - - -
30/08:00pm 17.4 ESE 4 5 1023.9 - 0.0 - - 10 - - - -
30/07:30pm 18.3 ESE 5 7 1024.0 - 0.0 - - 10 - - - -
30/07:00pm 19.7 ESE 7 9 1023.7 - 0.0 - - 10 - - - -
30/06:30pm 20.4 ESE 9 10 1023.4 - 0.0 - - 10 - - - -
30/06:00pm 20.9 ESE 10 12 1023.3 - 0.0 - - 10 - - - -
30/05:30pm 21.1 E 10 13 1023.3 - 0.0 - - 10 - - - -
30/05:00pm 21.3 E 11 14 1023.2 - 0.0 - - 10 - - - -
30/04:30pm 21.3 E 11 15 1023.1 - 0.0 - - 10 - - - -
30/04:00pm 22.1 E 12 14 1023.2 - 0.0 - - 10 - - - -
30/03:30pm 22.3 E 12 15 1023.4 - 0.0 - - 10 - - - -
30/03:00pm 21.8 E 11 15 1023.7 - 0.0 - - 10 - - - -
30/02:30pm 21.6 E 11 14 1024.0 - 0.0 - - 10 - - - -
30/02:00pm 21.9 E 11 15 1024.1 - 0.0 - - 10 - - - -
30/01:30pm 22.1 E 11 14 1024.4 - 0.0 - - 10 - - - -
30/01:00pm 21.5 E 11 14 1024.7 - 0.0 - - 10 - - - -
30/12:30pm 21.9 E 10 14 1024.9 - 0.0 - Partly cloudy 10 - - - -
30/12:00pm 21.9 E 9 12 1025.1 - 0.0 - - 10 - - - -
30/11:30am 21.0 E 9 12 1025.4 - 0.0 - Partly cloudy 10 - - - -
30/11:00am 20.4 E 8 11 1025.5 - 0.0 - Partly cloudy 10 - - - -
30/10:58am 20.3 E 8 11 1025.6 - 0.0 - Partly cloudy 10 - - - -
30/10:30am 19.5 SSE 7 8 1025.5 - 0.0 - Partly cloudy 10 - - - -
30/10:14am 18.7 SE 4 7 1025.5 - 0.0 - Partly cloudy 10 - - - -
30/10:00am 18.4 SE 5 7 1025.6 - 0.0 - Partly cloudy 10 - - - -
30/09:30am 17.5 CALM 0 3 1025.5 - 0.0 - - 10 - - - -
30/09:06am 15.9 NNW 3 4 1025.2 - 0.0 - Partly cloudy 10 - - - -
30/09:04am 15.8 NNW 3 4 1025.2 - 0.0 - Partly cloudy 9 - - - -
30/09:00am 15.4 NNW 3 4 1025.1 - 0.0 - Mostly clear 6 - - - -
30/08:50am 14.7 NNW 4 4 1025.0 - 0.0 - Partly cloudy 5 - - - -
30/08:49am 14.6 NNW 4 4 1025.0 - 0.0 - Partly cloudy 6 - - - -
30/08:30am 13.5 NNW 5 5 1024.8 - 0.0 - Partly cloudy 2 - - - -
30/08:00am 11.7 NW 5 5 1024.5 - 0.0 - Partly cloudy 0.6 - - - -
30/07:30am 11.2 NW 5 5 1024.1 - 0.0 - Partly cloudy 0.2 - - - -
30/07:08am 11.1 NW 6 7 1023.9 - 0.0 - Partly cloudy 5 - - - -
30/07:07am 11.0 NW 6 7 1023.9 - 0.0 - Partly cloudy 7 - - - -
30/07:00am 11.1 NW 5 7 1023.8 - 0.0 - Partly cloudy 10 - - - -
30/06:30am 10.9 WNW 5 6 1023.4 - 0.0 - - 10 - - - -
30/06:00am 10.8 NW 5 6 1023.4 - 0.0 - - 10 - - - -
30/05:30am 11.5 WNW 4 6 1023.3 - 0.0 - - 10 - - - -
30/05:00am 11.5 WNW 5 7 1023.2 - 0.0 - - 10 - - - -
30/04:30am 11.7 NW 6 8 1023.1 - 0.0 - - 10 - - - -
30/04:00am 10.8 NW 6 7 1023.1 - 0.0 - - 10 - - - -
30/03:30am 11.9 WNW 7 7 1023.1 - 0.0 - - 10 - - - -
30/03:00am 11.6 NW 5 7 1023.2 - 0.0 - - 10 - - - -
30/02:30am 12.0 NW 6 7 1023.4 - 0.0 - - 10 - - - -
30/02:00am 12.2 NW 6 7 1023.7 - 0.0 - - 10 - - - -
30/01:30am 12.0 WNW 4 5 1023.8 - 0.0 - - 10 - - - -
30/01:00am 12.3 NW 4 6 1024.0 - 0.0 - - 10 - - - -
30/12:30am 12.4 WNW 4 5 1024.2 - 0.0 - - 10 - - - -
30/12:00am 12.8 WNW 4 5 1024.4 - 0.0 - - 10 - - - -
 
Date/Time
CDT
Temp

°C
Wind Pressure Rain
since 9am
mm
Weather Cloud Vis
km
Sea
Height
m
Swell
Dir
 
Speed
knots
Gust
knots
hPa Trend Height
m
Period
s
Dir
29/11:30pm 13.5 NW 6 7 1024.5 - 0.0 - - 10 - - - -
29/11:00pm 13.1 CALM 0 0 1024.4 - 0.0 - - 10 - - - -
29/10:30pm 13.3 CALM 0 0 1024.4 - 0.0 - - 10 - - - -
29/10:00pm 14.0 CALM 0 0 1024.3 - 0.0 - - 10 - - - -
29/09:30pm 15.7 S 2 6 1024.2 - 0.0 - - 10 - - - -
29/09:00pm 15.7 ESE 6 7 1023.8 - 0.0 - - 10 - - - -
29/08:30pm 16.5 ESE 6 7 1023.5 - 0.0 - - 10 - - - -
29/08:00pm 17.1 ESE 5 6 1023.2 - 0.0 - - 10 - - - -
29/07:30pm 18.2 E 7 8 1022.7 - 0.0 - - 10 - - - -
29/07:00pm 19.5 ESE 8 10 1022.6 - 0.0 - - 10 - - - -
29/06:30pm 20.3 ESE 9 11 1022.3 - 0.0 - - 10 - - - -
29/06:00pm 21.1 SE 9 11 1022.1 - 0.0 - - 10 - - - -
29/05:30pm 21.6 SE 10 13 1021.9 - 0.0 - - 10 - - - -
29/05:00pm 21.8 E 9 11 1021.8 - 0.0 - - 10 - - - -
29/04:30pm 21.9 E 8 10 1021.7 - 0.0 - Partly cloudy 10 - - - -
29/04:00pm 20.7 E 9 10 1021.9 - 0.0 - Cloudy 10 - - - -
29/03:30pm 22.8 E 8 11 1021.9 - 0.0 - Cloudy 10 - - - -
29/03:00pm 21.2 SE 7 10 1022.1 - 0.0 - Cloudy 10 - - - -
29/02:30pm 21.1 SE 6 9 1022.3 - 0.0 - Cloudy 10 - - - -
29/02:00pm 21.2 SE 7 11 1022.6 - 0.0 - Partly cloudy 10 - - - -
29/01:30pm 21.7 SSE 8 10 1022.7 - 0.0 - Partly cloudy 10 - - - -
29/01:00pm 21.9 E 9 11 1022.8 - 0.0 - Partly cloudy 10 - - - -
29/12:30pm 22.1 ENE 8 12 1022.8 - 0.0 - Cloudy 10 - - - -
29/12:00pm 21.8 SSW 4 10 1022.9 - 0.0 - Mostly cloudy 10 - - - -
29/11:30am 23.5 SSE 4 7 1023.1 - 0.0 - Partly cloudy 10 - - - -
29/11:00am 20.9 WSW 5 8 1023.3 - 0.0 - Cloudy 10 - - - -
29/10:30am 20.6 W 5 8 1023.1 - 0.0 - Partly cloudy 10 - - - -

Other Formats:

Comma delimited format used in spreadsheet applications
http://www.bom.gov.au/fwo/IDS60701/IDS60701.95661.axf

JavaScript Object Notation format (JSON) in row-major order
http://www.bom.gov.au/fwo/IDS60701/IDS60701.95661.json